Aviation Digital Data Service (ADDS)

Output produced by TAFs form (0158 UTC 27 June 2017)
found at http://www.aviationweather.gov/adds/tafs/
 
KAPA 270153Z 09009KT 10SM FEW080 FEW150 27/03 A3013 RMK AO2 SLP126 T02670028
KAPA 262320Z 2700/2724 04010KT P6SM SCT080 
     FM270200 12013KT P6SM SCT080 
     FM270600 17013KT P6SM SCT200 
     FM271600 25007KT P6SM SCT120 BKN200 
     FM272000 29014KT P6SM BKN120